Hauptseite
METAR-TAF:

METAR-TAF

Flughäfen :

Flughafen Marshallinseln

Majuro, Marshallinseln

Breite: 07-04N, Länge: 171-17E, Höhe: 2 m

Beobachtung

Neuester Wetterbericht von vor 31 Minuten, um 23:55 UTC
Wind 20 kt aus Nordost
Temperatur 30°C
Luftfeuchtigkeit 75%
Luftdruck 1012 hPa
Sichtweite: 24.1 km
Leicht bewölkt in der Höhe von 1500 ft
Aufgelockert bewölkt in der Höhe von 5000 ft
Durchbrochene Bewölkung in der Höhe von 30000 ft

METAR: PKMJ 202355Z 05020KT 15SM FEW015 SCT050 BKN300 30/25 A2987 RMK LAST

Zeit: 12:26 (00:26 UTC)

Prognose

Neuester Wetterbericht von vor 44 Minuten, um 23:42 UTC
Gültige Prognose vom 21 um 00 UTC bis 21 um 24 UTC
Wind 18 kt aus Ost, Böen bis zu 24 kt
Sichtweite: 10 km
Aufgelockert bewölkt in der Höhe von 1800 ft
Schauer in der Nähe

TAF: PKMJ 202342Z 2100/2124 08018G24KT P6SM VCSH SCT018

Wetterbeobachtungen und Prognosen von mehr als 4000 Flughäfen (METAR und TAF Bericht).

Die verfügbaren Stationen werden durch gelbe und rote Markierungen auf der Karte dargestellt.

Führen Sie die Maus auf sie, um den Namen der Station zu sehen.

Darauf klicken, um die Beobachtung von Wetterbeobachtungen und Prognosen zu sehen.

Um die Karte zu ändern : klicken Sie auf den grünen Tasten mit einem schwarzen Kreuz Zum Vergrößern, auf den grünen Button mit einem Gedankenstrich zu verkleinern, oder auf die grünen Pfeile für benachbarte Karten.


METAR-TAF: